createdAt,value
2019-03-03T00:00:23.959Z,19.70
2019-03-03T00:01:24.171Z,18.80
2019-03-03T00:02:23.783Z,19.10
2019-03-03T00:03:23.698Z,19.60
2019-03-03T00:04:23.621Z,18.20
2019-03-03T00:05:23.534Z,18.90
2019-03-03T00:06:23.452Z,18.40
2019-03-03T00:07:23.375Z,19.80
2019-03-03T00:08:24.672Z,19.20
2019-03-03T00:09:23.183Z,19.40
2019-03-03T00:10:23.109Z,19.10
2019-03-03T00:11:23.023Z,18.20
2019-03-03T00:12:22.934Z,18.50
2019-03-03T00:13:22.852Z,18.70
2019-03-03T00:14:22.761Z,20.30
2019-03-03T00:15:22.673Z,19.10
2019-03-03T00:16:22.586Z,19.50
2019-03-03T00:17:22.510Z,19.00
2019-03-03T00:18:22.425Z,19.30
2019-03-03T00:19:22.336Z,19.00
2019-03-03T00:20:22.249Z,19.60
2019-03-03T00:21:22.160Z,19.00
2019-03-03T00:22:22.085Z,19.50
2019-03-03T00:23:21.999Z,19.90
2019-03-03T00:24:21.910Z,19.00
2019-03-03T00:25:21.824Z,19.00
2019-03-03T00:26:21.738Z,19.20
2019-03-03T00:27:21.651Z,18.90
2019-03-03T00:28:21.564Z,19.90
2019-03-03T00:29:21.486Z,19.80
2019-03-03T00:30:21.402Z,18.40
2019-03-03T00:31:21.311Z,19.50
2019-03-03T00:32:21.235Z,18.80
2019-03-03T00:33:21.137Z,19.40
2019-03-03T00:34:21.050Z,19.60
2019-03-03T00:35:20.975Z,19.50
2019-03-03T00:36:20.900Z,19.50
2019-03-03T00:37:20.804Z,19.00
2019-03-03T00:38:20.712Z,19.00
2019-03-03T00:39:20.632Z,18.50
2019-03-03T00:40:20.538Z,19.20
2019-03-03T00:41:20.712Z,19.70
2019-03-03T00:42:20.375Z,19.20
2019-03-03T00:43:20.301Z,19.20
2019-03-03T00:44:20.200Z,19.10
2019-03-03T00:45:20.116Z,20.10
2019-03-03T00:46:20.028Z,20.00
2019-03-03T00:47:19.951Z,19.20
2019-03-03T00:48:19.863Z,20.30
2019-03-03T00:49:19.828Z,20.10
2019-03-03T00:50:19.690Z,20.00
2019-03-03T00:51:19.602Z,20.30
2019-03-03T00:52:19.517Z,19.60
2019-03-03T00:53:19.438Z,20.20
2019-03-03T00:54:19.352Z,19.80
2019-03-03T00:55:19.263Z,20.30
2019-03-03T00:56:19.178Z,20.00
2019-03-03T00:57:19.092Z,19.90
2019-03-03T00:58:19.032Z,19.30
2019-03-03T00:59:18.927Z,20.40
2019-03-03T01:00:18.839Z,19.50
2019-03-03T01:01:19.003Z,19.90
2019-03-03T01:02:18.664Z,20.40
2019-03-03T01:03:18.578Z,20.60
2019-03-03T01:04:18.504Z,20.00
2019-03-03T01:05:18.415Z,20.10
2019-03-03T01:06:18.331Z,19.80
2019-03-03T01:07:18.240Z,20.00
2019-03-03T01:08:18.153Z,21.30
2019-03-03T01:09:18.068Z,20.80
2019-03-03T01:10:17.992Z,21.10
2019-03-03T01:11:17.904Z,21.30
2019-03-03T01:12:17.817Z,20.80
2019-03-03T01:13:17.732Z,21.40
2019-03-03T01:14:17.644Z,22.60
2019-03-03T01:15:17.565Z,22.10
2019-03-03T01:16:17.480Z,23.90
2019-03-03T01:17:17.391Z,24.50
2019-03-03T01:18:17.305Z,22.90
2019-03-03T01:19:17.218Z,23.50
2019-03-03T01:20:17.131Z,24.30
2019-03-03T01:21:17.055Z,24.20
2019-03-03T01:22:16.968Z,23.00
2019-03-03T01:23:16.880Z,24.40
2019-03-03T01:24:16.792Z,23.80
2019-03-03T01:25:16.706Z,24.50
2019-03-03T01:26:16.634Z,24.80
2019-03-03T01:27:16.542Z,24.70
2019-03-03T01:28:16.455Z,26.20
2019-03-03T01:29:16.368Z,25.30
2019-03-03T01:30:16.280Z,25.30
2019-03-03T01:31:16.193Z,27.30
2019-03-03T01:32:16.120Z,26.30
2019-03-03T01:33:16.031Z,26.80
2019-03-03T01:34:15.943Z,25.70
2019-03-03T01:35:15.858Z,27.30
2019-03-03T01:36:15.769Z,26.40
2019-03-03T01:37:15.681Z,27.90
2019-03-03T01:38:15.607Z,27.70
2019-03-03T01:39:15.518Z,26.70
2019-03-03T01:40:15.431Z,27.60
2019-03-03T01:41:15.343Z,27.80
2019-03-03T01:42:15.257Z,27.10
2019-03-03T01:43:15.169Z,26.70
2019-03-03T01:44:15.095Z,27.70
2019-03-03T01:45:15.010Z,28.00
2019-03-03T01:46:14.932Z,28.10
2019-03-03T01:47:14.835Z,27.30
2019-03-03T01:48:14.744Z,28.30
2019-03-03T01:49:14.659Z,27.10
2019-03-03T01:50:14.584Z,27.80
2019-03-03T01:51:14.495Z,27.30
2019-03-03T01:52:14.409Z,26.80
2019-03-03T01:53:14.325Z,27.80
2019-03-03T01:54:14.233Z,27.90
2019-03-03T01:55:14.145Z,27.80
2019-03-03T01:56:14.072Z,26.80
2019-03-03T01:57:13.983Z,27.20
2019-03-03T01:58:13.895Z,26.70
2019-03-03T01:59:13.810Z,27.60
2019-03-03T02:00:13.733Z,26.40
2019-03-03T02:01:13.897Z,27.90
2019-03-03T02:02:13.558Z,27.00
2019-03-03T02:03:13.471Z,27.60
2019-03-03T02:04:13.385Z,27.20
2019-03-03T02:05:13.296Z,28.00
2019-03-03T02:06:13.210Z,28.10
2019-03-03T02:07:13.122Z,28.60
2019-03-03T02:08:13.046Z,28.80
2019-03-03T02:09:12.960Z,27.90
2019-03-03T02:10:12.885Z,28.50
2019-03-03T02:11:12.785Z,27.60
2019-03-03T02:12:12.701Z,29.40
2019-03-03T02:13:12.617Z,29.40
2019-03-03T02:14:12.535Z,28.50
2019-03-03T02:15:12.447Z,28.70
2019-03-03T02:16:12.363Z,28.40
2019-03-03T02:17:12.273Z,29.00
2019-03-03T02:18:12.186Z,28.70
2019-03-03T02:19:12.099Z,28.10
2019-03-03T02:20:12.023Z,29.00
2019-03-03T02:21:12.238Z,28.30
2019-03-03T02:22:11.848Z,28.20
2019-03-03T02:23:11.762Z,28.50
2019-03-03T02:24:11.689Z,29.00
2019-03-03T02:25:11.600Z,28.30
2019-03-03T02:26:11.513Z,28.30
2019-03-03T02:27:11.424Z,29.20
2019-03-03T02:28:11.337Z,30.50
2019-03-03T02:29:11.252Z,28.30
2019-03-03T02:30:11.174Z,28.30
2019-03-03T02:31:11.088Z,28.40
2019-03-03T02:32:11.000Z,28.60
2019-03-03T02:33:10.913Z,29.30
2019-03-03T02:34:10.825Z,28.60
2019-03-03T02:35:10.757Z,28.50
2019-03-03T02:36:10.668Z,29.90
2019-03-03T02:37:10.576Z,29.40
2019-03-03T02:38:10.488Z,30.40
2019-03-03T02:39:10.401Z,30.90
2019-03-03T02:40:10.314Z,30.20
2019-03-03T02:41:10.243Z,31.30
2019-03-03T02:42:10.150Z,31.20
2019-03-03T02:43:10.069Z,31.90
2019-03-03T02:44:09.978Z,32.60
2019-03-03T02:45:09.899Z,32.00
2019-03-03T02:46:09.815Z,31.80
2019-03-03T02:47:09.726Z,33.00
2019-03-03T02:48:09.665Z,33.10
2019-03-03T02:49:09.588Z,33.90
2019-03-03T02:50:09.464Z,35.20
2019-03-03T02:51:09.380Z,33.40
2019-03-03T02:52:09.310Z,33.70
2019-03-03T02:53:09.214Z,35.70
2019-03-03T02:54:09.127Z,34.10
2019-03-03T02:55:09.050Z,33.40
2019-03-03T02:56:08.954Z,35.20
2019-03-03T02:57:08.877Z,34.10
2019-03-03T02:58:08.792Z,35.50
2019-03-03T02:59:08.704Z,35.80
2019-03-03T03:00:08.617Z,35.80
2019-03-03T03:01:08.842Z,35.60
2019-03-03T03:02:08.459Z,34.50
2019-03-03T03:03:08.367Z,36.00
2019-03-03T03:04:08.278Z,36.60
2019-03-03T03:05:08.192Z,36.10
2019-03-03T03:06:08.104Z,36.30
2019-03-03T03:07:08.016Z,35.90
2019-03-03T03:08:07.945Z,37.20
2019-03-03T03:09:07.866Z,37.00
2019-03-03T03:10:07.771Z,36.00
2019-03-03T03:11:07.928Z,37.10
2019-03-03T03:12:07.598Z,37.40
2019-03-03T03:13:07.517Z,37.20
2019-03-03T03:14:07.430Z,36.80
2019-03-03T03:15:07.343Z,37.60
2019-03-03T03:16:07.269Z,35.00
2019-03-03T03:17:07.170Z,35.70
2019-03-03T03:18:07.098Z,37.90
2019-03-03T03:19:07.004Z,36.20
2019-03-03T03:20:06.919Z,37.60
2019-03-03T03:21:07.129Z,36.20
2019-03-03T03:22:06.742Z,37.90
2019-03-03T03:23:06.670Z,35.80
2019-03-03T03:24:06.579Z,38.30
2019-03-03T03:25:06.499Z,36.70
2019-03-03T03:26:06.406Z,37.80
2019-03-03T03:27:07.318Z,37.10
2019-03-03T03:28:06.231Z,37.60
2019-03-03T03:29:06.173Z,38.20
2019-03-03T03:30:06.069Z,36.70
2019-03-03T03:31:05.981Z,35.40
2019-03-03T03:32:05.894Z,38.90
2019-03-03T03:33:05.817Z,38.20
2019-03-03T03:34:05.745Z,37.70
2019-03-03T03:35:05.644Z,37.30
2019-03-03T03:36:05.558Z,37.30
2019-03-03T03:37:05.468Z,37.30
2019-03-03T03:38:05.381Z,37.80
2019-03-03T03:39:05.313Z,38.10
2019-03-03T03:40:05.292Z,38.20
2019-03-03T03:41:05.131Z,37.40
2019-03-03T03:42:05.044Z,38.00
2019-03-03T03:43:04.957Z,36.40
2019-03-03T03:44:04.882Z,36.10
2019-03-03T03:45:04.795Z,37.10
2019-03-03T03:46:05.069Z,37.10
2019-03-03T03:47:04.621Z,37.00
2019-03-03T03:48:04.546Z,36.90
2019-03-03T03:49:04.460Z,36.90
2019-03-03T03:50:04.373Z,37.60
2019-03-03T03:51:04.289Z,37.60
2019-03-03T03:52:04.198Z,36.30
2019-03-03T03:53:04.108Z,37.40
2019-03-03T03:54:04.032Z,37.80
2019-03-03T03:55:03.949Z,38.10
2019-03-03T03:56:03.867Z,37.30
2019-03-03T03:57:03.789Z,38.80
2019-03-03T03:58:03.700Z,37.80
2019-03-03T03:59:03.596Z,39.20
2019-03-03T04:00:03.522Z,38.00
2019-03-03T04:01:03.433Z,37.30
2019-03-03T04:02:03.346Z,37.60
2019-03-03T04:03:03.285Z,36.60
2019-03-03T04:04:03.173Z,36.80
2019-03-03T04:05:03.105Z,36.30
2019-03-03T04:06:03.261Z,36.50
2019-03-03T04:07:02.923Z,36.00
2019-03-03T04:08:02.835Z,36.90
2019-03-03T04:09:02.747Z,36.40
2019-03-03T04:10:02.683Z,34.40
2019-03-03T04:11:02.585Z,36.20
2019-03-03T04:12:02.504Z,35.60
2019-03-03T04:13:02.428Z,35.60
2019-03-03T04:14:02.337Z,34.40
2019-03-03T04:15:02.252Z,34.90
2019-03-03T04:16:02.162Z,33.50
2019-03-03T04:17:02.073Z,34.90
2019-03-03T04:18:01.993Z,32.60
2019-03-03T04:19:01.902Z,34.00
2019-03-03T04:20:01.882Z,32.40
2019-03-03T04:21:01.991Z,32.40
2019-03-03T04:22:01.649Z,33.40
2019-03-03T04:23:01.562Z,33.90
2019-03-03T04:24:01.509Z,32.60
2019-03-03T04:25:01.399Z,32.40
2019-03-03T04:26:01.323Z,31.30
2019-03-03T04:27:01.225Z,32.50
2019-03-03T04:28:01.136Z,32.40
2019-03-03T04:29:01.062Z,31.50
2019-03-03T04:30:00.975Z,31.40
2019-03-03T04:31:00.886Z,31.30
2019-03-03T04:32:00.798Z,30.60
2019-03-03T04:33:00.724Z,30.00
2019-03-03T04:34:00.636Z,30.30
2019-03-03T04:35:00.551Z,30.60
2019-03-03T04:36:00.463Z,29.90
2019-03-03T04:37:00.379Z,30.10
2019-03-03T04:38:00.300Z,29.30
2019-03-03T04:39:00.214Z,27.80
2019-03-03T04:40:00.317Z,30.70
2019-03-03T04:41:00.037Z,28.10
2019-03-03T04:41:59.961Z,29.60
2019-03-03T04:42:59.875Z,29.00
2019-03-03T04:43:59.788Z,28.50
2019-03-03T04:44:59.701Z,28.20
2019-03-03T04:45:59.613Z,27.50
2019-03-03T04:46:59.538Z,28.80
2019-03-03T04:47:59.450Z,28.10
2019-03-03T04:48:59.362Z,27.80
2019-03-03T04:49:59.279Z,27.50
2019-03-03T04:50:59.201Z,26.40
2019-03-03T04:51:59.114Z,26.80
2019-03-03T04:52:59.027Z,25.90
2019-03-03T04:53:58.940Z,26.50
2019-03-03T04:54:58.851Z,27.30
2019-03-03T04:55:58.827Z,26.20
2019-03-03T04:56:58.689Z,26.40
2019-03-03T04:57:58.605Z,26.10
2019-03-03T04:58:58.516Z,25.20
2019-03-03T04:59:58.438Z,25.70
2019-03-03T05:00:58.352Z,25.90
2019-03-03T05:01:58.264Z,24.10
2019-03-03T05:02:58.192Z,24.50
2019-03-03T05:03:58.107Z,23.80
2019-03-03T05:04:58.028Z,23.80
2019-03-03T05:05:57.927Z,24.20
2019-03-03T05:06:57.840Z,24.30
2019-03-03T05:07:57.753Z,23.10
2019-03-03T05:08:57.679Z,23.60
2019-03-03T05:09:57.590Z,23.30
2019-03-03T05:10:57.503Z,23.60
2019-03-03T05:11:57.415Z,23.60
2019-03-03T05:12:57.340Z,24.00
2019-03-03T05:13:57.252Z,23.20
2019-03-03T05:14:57.168Z,23.20
2019-03-03T05:15:57.126Z,22.40
2019-03-03T05:16:57.039Z,23.00
2019-03-03T05:17:56.915Z,22.10
2019-03-03T05:18:56.886Z,21.90
2019-03-03T05:19:56.741Z,21.50
2019-03-03T05:20:56.928Z,21.80
2019-03-03T05:21:56.579Z,21.30
2019-03-03T05:22:56.491Z,21.30
2019-03-03T05:23:56.405Z,20.00
2019-03-03T05:24:56.329Z,21.10
2019-03-03T05:25:56.241Z,21.30
2019-03-03T05:26:56.155Z,20.30
2019-03-03T05:27:56.067Z,21.90
2019-03-03T05:28:55.991Z,21.20
2019-03-03T05:29:55.906Z,20.30
2019-03-03T05:30:55.817Z,21.30
2019-03-03T05:31:55.731Z,20.40
2019-03-03T05:32:55.655Z,21.30
2019-03-03T05:33:55.567Z,20.20
2019-03-03T05:34:55.480Z,20.90
2019-03-03T05:35:55.405Z,19.70
2019-03-03T05:36:55.317Z,21.10
2019-03-03T05:37:55.230Z,20.20
2019-03-03T05:38:55.142Z,20.60
2019-03-03T05:39:55.057Z,19.30
2019-03-03T05:40:54.969Z,20.20
2019-03-03T05:41:54.906Z,19.70
2019-03-03T05:42:54.806Z,19.70
2019-03-03T05:43:54.719Z,19.70
2019-03-03T05:44:54.632Z,19.60
2019-03-03T05:45:54.556Z,18.50
2019-03-03T05:46:54.468Z,19.50
2019-03-03T05:47:54.384Z,18.60
2019-03-03T05:48:54.296Z,18.80
2019-03-03T05:49:54.218Z,18.40
2019-03-03T05:50:54.132Z,18.90
2019-03-03T05:51:54.043Z,18.30
2019-03-03T05:52:53.956Z,19.40
2019-03-03T05:53:53.882Z,17.90
2019-03-03T05:54:53.794Z,17.90
2019-03-03T05:55:53.707Z,18.30
2019-03-03T05:56:53.656Z,16.60
2019-03-03T05:57:53.545Z,16.70
2019-03-03T05:58:53.472Z,17.40
2019-03-03T05:59:53.372Z,16.40
2019-03-03T06:00:53.288Z,15.20
2019-03-03T06:01:53.209Z,16.40
2019-03-03T06:02:53.120Z,16.00
2019-03-03T06:03:53.033Z,16.20
2019-03-03T06:04:52.945Z,15.10
2019-03-03T06:05:52.881Z,15.50
2019-03-03T06:06:52.785Z,14.40
2019-03-03T06:07:52.695Z,14.10
2019-03-03T06:08:52.608Z,14.30
2019-03-03T06:09:52.535Z,14.50
2019-03-03T06:10:52.446Z,13.50
2019-03-03T06:11:52.359Z,14.00
2019-03-03T06:12:52.271Z,13.40
2019-03-03T06:13:52.197Z,14.00
2019-03-03T06:14:52.110Z,13.70
2019-03-03T06:15:52.021Z,13.30
2019-03-03T06:16:51.934Z,12.70
2019-03-03T06:17:51.860Z,12.40
2019-03-03T06:18:51.771Z,12.50
2019-03-03T06:19:51.690Z,11.90
2019-03-03T06:20:51.904Z,12.40
2019-03-03T06:21:51.521Z,12.20
2019-03-03T06:22:51.435Z,12.40
2019-03-03T06:23:51.360Z,12.10
2019-03-03T06:24:51.260Z,11.70
2019-03-03T06:25:51.194Z,11.70
2019-03-03T06:26:51.097Z,11.60
2019-03-03T06:27:51.010Z,11.20
2019-03-03T06:28:50.925Z,11.70
2019-03-03T06:29:50.849Z,11.40
2019-03-03T06:30:50.761Z,10.40
2019-03-03T06:31:50.672Z,10.30
2019-03-03T06:32:50.598Z,10.50
2019-03-03T06:33:50.511Z,10.40
2019-03-03T06:34:50.423Z,10.00
2019-03-03T06:35:50.336Z,10.30
2019-03-03T06:36:50.261Z,9.40
2019-03-03T06:37:50.186Z,10.00
2019-03-03T06:38:50.087Z,10.10
2019-03-03T06:39:50.002Z,9.30
2019-03-03T06:40:49.923Z,9.30
2019-03-03T06:41:49.837Z,9.50
2019-03-03T06:42:49.752Z,9.20
2019-03-03T06:43:49.687Z,9.70
2019-03-03T06:44:49.587Z,9.30
2019-03-03T06:45:49.749Z,8.70
2019-03-03T06:46:49.412Z,8.70
2019-03-03T06:47:49.339Z,8.40
2019-03-03T06:48:49.249Z,8.60
2019-03-03T06:49:49.163Z,8.30
2019-03-03T06:50:49.076Z,8.60
2019-03-03T06:51:49.001Z,8.60
2019-03-03T06:52:48.912Z,8.50
2019-03-03T06:53:48.826Z,8.20
2019-03-03T06:54:48.750Z,8.30
2019-03-03T06:55:48.668Z,7.60
2019-03-03T06:56:48.575Z,8.10
2019-03-03T06:57:48.504Z,7.40
2019-03-03T06:58:48.413Z,8.10
2019-03-03T06:59:48.339Z,7.80
2019-03-03T07:00:48.242Z,7.10
2019-03-03T07:01:48.164Z,7.60
2019-03-03T07:02:48.077Z,7.60
2019-03-03T07:03:47.989Z,7.90
2019-03-03T07:04:47.914Z,7.10
2019-03-03T07:05:47.826Z,7.70
2019-03-03T07:06:47.742Z,6.90
2019-03-03T07:07:47.652Z,7.10
2019-03-03T07:08:47.577Z,7.00
2019-03-03T07:09:47.490Z,7.40
2019-03-03T07:10:47.401Z,6.70
2019-03-03T07:11:47.327Z,6.20
2019-03-03T07:12:47.240Z,6.70
2019-03-03T07:13:47.165Z,6.10
2019-03-03T07:14:47.077Z,6.80
2019-03-03T07:15:46.991Z,6.50
2019-03-03T07:16:46.903Z,6.30
2019-03-03T07:17:46.827Z,6.20
2019-03-03T07:18:46.741Z,6.40
2019-03-03T07:19:46.665Z,6.10
2019-03-03T07:20:46.869Z,6.00
2019-03-03T07:21:46.490Z,5.90
2019-03-03T07:22:46.404Z,5.80
2019-03-03T07:23:46.319Z,5.70
2019-03-03T07:24:46.243Z,5.70
2019-03-03T07:25:46.154Z,5.90
2019-03-03T07:26:46.067Z,5.50
2019-03-03T07:27:45.993Z,6.10
2019-03-03T07:28:45.904Z,5.70
2019-03-03T07:29:45.820Z,5.80
2019-03-03T07:30:45.747Z,5.80
2019-03-03T07:31:45.654Z,5.10
2019-03-03T07:32:45.567Z,5.30
2019-03-03T07:33:45.509Z,5.70
2019-03-03T07:34:47.065Z,5.90
2019-03-03T07:35:45.318Z,5.20
2019-03-03T07:36:45.241Z,5.20
2019-03-03T07:37:45.154Z,5.40
2019-03-03T07:38:45.068Z,5.10
2019-03-03T07:39:44.983Z,5.20
2019-03-03T07:40:44.906Z,5.20
2019-03-03T07:41:44.818Z,5.00
2019-03-03T07:42:44.731Z,5.20
2019-03-03T07:43:44.655Z,5.10
2019-03-03T07:44:44.568Z,5.50
2019-03-03T07:45:44.483Z,5.00
2019-03-03T07:46:44.406Z,5.30
2019-03-03T07:47:44.318Z,5.50
2019-03-03T07:48:44.232Z,5.10
2019-03-03T07:49:44.155Z,4.90
2019-03-03T07:50:44.070Z,4.80
2019-03-03T07:51:43.982Z,4.30
2019-03-03T07:52:43.907Z,5.20
2019-03-03T07:53:43.819Z,4.90
2019-03-03T07:54:43.733Z,5.10
2019-03-03T07:55:43.657Z,4.80
2019-03-03T07:56:43.568Z,4.60
2019-03-03T07:57:43.494Z,5.10
2019-03-03T07:58:43.408Z,4.80
2019-03-03T07:59:43.319Z,5.00
2019-03-03T08:00:43.246Z,4.70
2019-03-03T08:01:43.157Z,4.50
2019-03-03T08:02:43.071Z,4.80
2019-03-03T08:03:42.997Z,4.60
2019-03-03T08:04:42.907Z,4.50
2019-03-03T08:05:42.820Z,4.50
2019-03-03T08:06:42.746Z,4.60
2019-03-03T08:07:42.658Z,4.90
2019-03-03T08:08:42.570Z,4.90
2019-03-03T08:09:42.496Z,4.80
2019-03-03T08:10:42.409Z,4.70
2019-03-03T08:11:42.337Z,4.80
2019-03-03T08:12:42.246Z,4.50
2019-03-03T08:13:42.160Z,4.40
2019-03-03T08:14:42.084Z,4.20
2019-03-03T08:15:41.998Z,4.60
2019-03-03T08:16:41.908Z,5.10
2019-03-03T08:17:41.834Z,5.10
2019-03-03T08:18:41.747Z,4.40
2019-03-03T08:19:41.660Z,4.70
2019-03-03T08:20:41.585Z,4.50
2019-03-03T08:21:41.497Z,4.60
2019-03-03T08:22:41.431Z,4.40
2019-03-03T08:23:41.335Z,4.60
2019-03-03T08:24:41.246Z,4.90
2019-03-03T08:25:41.173Z,4.70
2019-03-03T08:26:41.097Z,4.70
2019-03-03T08:27:41.012Z,4.70
2019-03-03T08:28:40.929Z,4.50
2019-03-03T08:29:40.837Z,4.50
2019-03-03T08:30:40.760Z,4.50
2019-03-03T08:31:40.673Z,4.60
2019-03-03T08:32:40.599Z,4.60
2019-03-03T08:33:40.510Z,4.80
2019-03-03T08:34:40.423Z,4.80
2019-03-03T08:35:40.348Z,4.70
2019-03-03T08:36:40.260Z,4.60
2019-03-03T08:37:40.185Z,4.70
2019-03-03T08:38:40.099Z,4.50
2019-03-03T08:39:40.014Z,4.40
2019-03-03T08:40:39.936Z,4.60
2019-03-03T08:41:39.850Z,4.30
2019-03-03T08:42:39.775Z,4.50
2019-03-03T08:43:39.686Z,4.50
2019-03-03T08:44:39.600Z,4.50
2019-03-03T08:45:39.524Z,4.50
2019-03-03T08:46:39.438Z,4.40
2019-03-03T08:47:39.361Z,4.40
2019-03-03T08:48:40.779Z,4.50
2019-03-03T08:49:39.199Z,4.50
2019-03-03T08:50:39.111Z,4.80
2019-03-03T08:51:39.025Z,4.60
2019-03-03T08:52:38.953Z,4.90
2019-03-03T08:53:38.862Z,4.20
2019-03-03T08:54:38.788Z,4.80
2019-03-03T08:55:38.700Z,4.50
2019-03-03T08:56:38.613Z,5.10
2019-03-03T08:57:38.537Z,4.90
2019-03-03T08:58:38.451Z,5.10
2019-03-03T08:59:38.375Z,5.60
2019-03-03T09:00:38.287Z,5.30
2019-03-03T09:01:38.214Z,5.70
2019-03-03T09:02:38.126Z,5.10
2019-03-03T09:03:38.038Z,5.30
2019-03-03T09:04:37.964Z,5.90
2019-03-03T09:05:37.877Z,4.90
2019-03-03T09:06:37.789Z,5.10
2019-03-03T09:07:37.713Z,5.20
2019-03-03T09:08:37.626Z,4.70
2019-03-03T09:09:37.554Z,4.80
2019-03-03T09:10:37.765Z,4.80
2019-03-03T09:11:37.388Z,4.80
2019-03-03T09:12:37.303Z,4.50
2019-03-03T09:13:37.214Z,5.30
2019-03-03T09:14:37.139Z,5.20
2019-03-03T09:15:37.052Z,4.30
2019-03-03T09:16:36.965Z,4.60
2019-03-03T09:17:36.891Z,4.50
2019-03-03T09:18:36.804Z,5.20
2019-03-03T09:19:36.728Z,4.70
2019-03-03T09:20:36.940Z,4.50
2019-03-03T09:21:36.553Z,5.10
2019-03-03T09:22:36.477Z,4.50
2019-03-03T09:23:36.392Z,4.20
2019-03-03T09:24:36.315Z,4.70
2019-03-03T09:25:36.229Z,4.70
2019-03-03T09:26:36.140Z,4.20
2019-03-03T09:27:36.065Z,4.30
2019-03-03T09:28:35.979Z,4.60
2019-03-03T09:29:35.904Z,4.90
2019-03-03T09:30:35.816Z,5.20
2019-03-03T09:31:35.729Z,4.60
2019-03-03T09:32:35.655Z,4.40
2019-03-03T09:33:36.765Z,4.50
2019-03-03T09:34:35.491Z,4.80
2019-03-03T09:35:35.405Z,4.60
2019-03-03T09:36:35.318Z,4.20
2019-03-03T09:37:35.241Z,4.20
2019-03-03T09:38:35.154Z,4.40
2019-03-03T09:39:35.080Z,4.40
2019-03-03T09:40:35.241Z,4.60
2019-03-03T09:41:34.906Z,4.20
2019-03-03T09:42:34.831Z,4.30
2019-03-03T09:43:34.742Z,4.10
2019-03-03T09:44:34.668Z,4.30
2019-03-03T09:45:34.580Z,4.30
2019-03-03T09:46:34.493Z,4.30
2019-03-03T09:47:34.417Z,4.30
2019-03-03T09:48:34.330Z,4.00
2019-03-03T09:49:34.256Z,4.20
2019-03-03T09:50:34.170Z,4.70
2019-03-03T09:51:34.081Z,3.90
2019-03-03T09:52:34.008Z,4.10
2019-03-03T09:53:33.920Z,4.00
2019-03-03T09:54:33.843Z,4.40
2019-03-03T09:55:33.757Z,4.10
2019-03-03T09:56:33.683Z,4.60
2019-03-03T09:57:33.593Z,4.20
2019-03-03T09:58:33.510Z,4.30
2019-03-03T09:59:33.432Z,4.00
2019-03-03T10:00:33.357Z,4.10
2019-03-03T10:01:33.271Z,4.00
2019-03-03T10:02:33.183Z,3.80
2019-03-03T10:03:33.097Z,4.30
2019-03-03T10:04:33.019Z,4.40
2019-03-03T10:05:32.932Z,4.10
2019-03-03T10:06:32.858Z,4.00
2019-03-03T10:07:32.783Z,4.20
2019-03-03T10:08:32.694Z,4.40
2019-03-03T10:09:32.612Z,4.30
2019-03-03T10:10:32.519Z,4.30
2019-03-03T10:11:32.444Z,4.30
2019-03-03T10:12:32.358Z,3.80
2019-03-03T10:13:32.283Z,4.30
2019-03-03T10:14:32.195Z,4.40
2019-03-03T10:15:32.109Z,4.30
2019-03-03T10:16:32.034Z,4.00
2019-03-03T10:17:31.946Z,4.10
2019-03-03T10:18:31.871Z,4.50
2019-03-03T10:19:31.785Z,4.10
2019-03-03T10:20:32.008Z,4.20
2019-03-03T10:21:31.621Z,4.30
2019-03-03T10:22:31.533Z,4.60
2019-03-03T10:23:31.460Z,4.20
2019-03-03T10:24:31.371Z,4.20
2019-03-03T10:25:31.308Z,4.50
2019-03-03T10:26:31.209Z,4.20
2019-03-03T10:27:31.134Z,3.90
2019-03-03T10:28:31.046Z,4.00
2019-03-03T10:29:30.973Z,4.00
2019-03-03T10:30:30.885Z,3.90
2019-03-03T10:31:30.798Z,4.20
2019-03-03T10:32:30.722Z,3.80
2019-03-03T10:33:30.635Z,3.70
2019-03-03T10:34:30.560Z,4.10
2019-03-03T10:35:30.472Z,4.20
2019-03-03T10:36:30.387Z,4.40
2019-03-03T10:37:30.310Z,3.70
2019-03-03T10:38:36.119Z,3.90
2019-03-03T10:39:30.147Z,3.60
2019-03-03T10:40:30.061Z,4.10
2019-03-03T10:41:29.985Z,3.90
2019-03-03T10:42:29.900Z,4.10
2019-03-03T10:43:29.862Z,3.80
2019-03-03T10:44:29.737Z,4.40
2019-03-03T10:45:29.648Z,4.40
2019-03-03T10:46:29.573Z,4.50
2019-03-03T10:47:29.487Z,4.60
2019-03-03T10:48:29.400Z,4.60
2019-03-03T10:49:29.327Z,4.30
2019-03-03T10:50:29.237Z,4.30
2019-03-03T10:51:29.161Z,4.50
2019-03-03T10:52:29.095Z,5.10
2019-03-03T10:53:28.999Z,4.50
2019-03-03T10:54:28.912Z,4.90
2019-03-03T10:55:28.824Z,4.90
2019-03-03T10:56:28.749Z,4.80
2019-03-03T10:57:30.331Z,4.60
2019-03-03T10:58:28.596Z,5.20
2019-03-03T10:59:28.499Z,4.80
2019-03-03T11:00:28.413Z,4.40
2019-03-03T11:01:28.338Z,4.50
2019-03-03T11:02:28.271Z,4.20
2019-03-03T11:03:28.175Z,4.70
2019-03-03T11:04:28.089Z,4.60
2019-03-03T11:05:28.008Z,4.10
2019-03-03T11:06:27.925Z,4.10
2019-03-03T11:07:27.840Z,4.20
2019-03-03T11:08:27.764Z,4.30
2019-03-03T11:09:27.676Z,4.30
2019-03-03T11:10:27.600Z,4.10
2019-03-03T11:11:27.514Z,4.30
2019-03-03T11:12:27.427Z,4.00
2019-03-03T11:13:27.351Z,4.20
2019-03-03T11:14:27.264Z,3.90
2019-03-03T11:15:27.192Z,4.10
2019-03-03T11:16:27.101Z,3.90
2019-03-03T11:17:27.028Z,3.70
2019-03-03T11:18:26.940Z,3.50
2019-03-03T11:19:26.853Z,3.80
2019-03-03T11:20:26.777Z,4.00
2019-03-03T11:21:26.690Z,4.30
2019-03-03T11:22:26.615Z,3.70
2019-03-03T11:23:26.526Z,3.80
2019-03-03T11:24:26.452Z,3.90
2019-03-03T11:25:26.365Z,4.10
2019-03-03T11:26:26.278Z,3.50
2019-03-03T11:27:26.203Z,3.70
2019-03-03T11:28:26.116Z,4.20
2019-03-03T11:29:26.041Z,3.60
2019-03-03T11:30:25.953Z,3.60
2019-03-03T11:31:25.878Z,3.80
2019-03-03T11:32:25.791Z,3.10
2019-03-03T11:33:25.713Z,3.70
2019-03-03T11:34:25.629Z,3.90
2019-03-03T11:35:25.544Z,3.50
2019-03-03T11:36:25.466Z,3.80
2019-03-03T11:37:25.379Z,3.70
2019-03-03T11:38:25.307Z,4.10
2019-03-03T11:39:25.236Z,3.70
2019-03-03T11:40:25.143Z,3.90
2019-03-03T11:41:25.054Z,3.50
2019-03-03T11:42:24.967Z,3.60
2019-03-03T11:43:24.893Z,3.80
2019-03-03T11:44:24.805Z,3.60
2019-03-03T11:45:24.729Z,3.70
2019-03-03T11:46:24.642Z,4.00
2019-03-03T11:47:24.570Z,4.00
2019-03-03T11:48:24.483Z,3.50
2019-03-03T11:49:24.405Z,3.80
2019-03-03T11:50:24.318Z,3.90
2019-03-03T11:51:24.231Z,4.00
2019-03-03T11:52:24.155Z,4.00
2019-03-03T11:53:24.070Z,3.70
2019-03-03T11:54:23.993Z,4.00
2019-03-03T11:55:23.905Z,4.30
2019-03-03T11:56:23.830Z,3.80
2019-03-03T11:57:23.744Z,4.20
2019-03-03T11:58:23.669Z,3.60
2019-03-03T11:59:23.598Z,4.20
2019-03-03T12:00:23.755Z,4.20
2019-03-03T12:01:23.421Z,4.00
2019-03-03T12:02:23.344Z,4.20
2019-03-03T12:03:23.257Z,4.90
2019-03-03T12:04:23.174Z,3.80
2019-03-03T12:05:23.095Z,3.90
2019-03-03T12:06:23.006Z,4.10
2019-03-03T12:07:22.954Z,4.70
2019-03-03T12:08:22.845Z,4.30
2019-03-03T12:09:22.758Z,4.40
2019-03-03T12:10:22.682Z,4.10
2019-03-03T12:11:22.595Z,4.60
2019-03-03T12:12:22.522Z,4.80
2019-03-03T12:13:22.443Z,4.10
2019-03-03T12:14:22.356Z,4.50
2019-03-03T12:15:22.281Z,4.40
2019-03-03T12:16:22.185Z,4.70
2019-03-03T12:17:22.107Z,4.60
2019-03-03T12:18:22.032Z,5.00
2019-03-03T12:19:21.945Z,4.60
2019-03-03T12:20:22.107Z,4.50
2019-03-03T12:21:21.782Z,4.50
2019-03-03T12:22:21.699Z,4.70
2019-03-03T12:23:21.607Z,4.80
2019-03-03T12:24:21.533Z,5.00
2019-03-03T12:25:21.806Z,4.80
2019-03-03T12:26:21.360Z,5.20
2019-03-03T12:27:21.284Z,5.10
2019-03-03T12:28:21.197Z,5.10
2019-03-03T12:29:21.122Z,5.10
2019-03-03T12:30:21.038Z,5.40
2019-03-03T12:31:20.959Z,5.30
2019-03-03T12:32:20.872Z,5.40
2019-03-03T12:33:20.784Z,5.50
2019-03-03T12:34:20.709Z,6.40
2019-03-03T12:35:20.622Z,5.60
2019-03-03T12:36:20.547Z,5.80
2019-03-03T12:37:20.460Z,5.50
2019-03-03T12:38:20.374Z,5.30
2019-03-03T12:39:20.300Z,5.80
2019-03-03T12:40:20.210Z,5.70
2019-03-03T12:41:20.135Z,5.30
2019-03-03T12:42:20.048Z,5.70
2019-03-03T12:43:19.962Z,5.30
2019-03-03T12:44:19.889Z,5.10
2019-03-03T12:45:19.797Z,5.50
2019-03-03T12:46:19.723Z,5.40
2019-03-03T12:47:19.635Z,5.90
2019-03-03T12:48:19.577Z,5.10
2019-03-03T12:49:19.474Z,5.20
2019-03-03T12:50:19.385Z,5.70
2019-03-03T12:51:19.313Z,5.90
2019-03-03T12:52:19.236Z,5.50
2019-03-03T12:53:19.150Z,5.80
2019-03-03T12:54:19.064Z,5.60
2019-03-03T12:55:18.977Z,5.80
2019-03-03T12:56:18.902Z,5.60
2019-03-03T12:57:18.816Z,5.30
2019-03-03T12:58:18.736Z,5.80
2019-03-03T12:59:18.650Z,5.20
2019-03-03T13:00:18.575Z,5.10
2019-03-03T13:01:18.487Z,5.40
2019-03-03T13:02:18.400Z,5.50
2019-03-03T13:03:18.325Z,5.40
2019-03-03T13:04:18.237Z,5.40